sensor_id;sensor_type;location;lat;lon;timestamp;P1;durP1;ratioP1;P2;durP2;ratioP2
25409;SDS011;13339;50.840;4.346;2022-09-09T00:00:16;3.83;;;1.60;;
25409;SDS011;13339;50.840;4.346;2022-09-09T00:03:31;4.30;;;1.60;;
25409;SDS011;13339;50.840;4.346;2022-09-09T00:05:44;2.60;;;1.50;;
25409;SDS011;13339;50.840;4.346;2022-09-09T00:08:15;3.03;;;1.70;;
25409;SDS011;13339;50.840;4.346;2022-09-09T00:10:45;2.40;;;1.37;;
25409;SDS011;13339;50.840;4.346;2022-09-09T00:16:21;7.63;;;1.90;;
25409;SDS011;13339;50.840;4.346;2022-09-09T00:21:19;6.33;;;2.00;;
25409;SDS011;13339;50.840;4.346;2022-09-09T00:23:50;4.07;;;1.67;;
25409;SDS011;13339;50.840;4.346;2022-09-09T00:26:31;6.37;;;1.63;;
25409;SDS011;13339;50.840;4.346;2022-09-09T00:29:44;2.70;;;1.50;;
25409;SDS011;13339;50.840;4.346;2022-09-09T00:31:55;8.90;;;1.73;;
25409;SDS011;13339;50.840;4.346;2022-09-09T00:34:25;6.80;;;1.80;;
25409;SDS011;13339;50.840;4.346;2022-09-09T00:36:53;2.40;;;1.20;;
25409;SDS011;13339;50.840;4.346;2022-09-09T00:50:01;4.10;;;1.40;;
25409;SDS011;13339;50.840;4.346;2022-09-09T00:52:45;3.27;;;1.27;;
25409;SDS011;13339;50.840;4.346;2022-09-09T00:58:10;4.63;;;1.53;;
25409;SDS011;13339;50.840;4.346;2022-09-09T01:00:43;5.37;;;1.63;;
25409;SDS011;13339;50.840;4.346;2022-09-09T01:03:19;5.33;;;1.77;;
25409;SDS011;13339;50.840;4.346;2022-09-09T01:16:45;4.13;;;1.40;;
25409;SDS011;13339;50.840;4.346;2022-09-09T01:19:30;9.03;;;1.60;;
25409;SDS011;13339;50.840;4.346;2022-09-09T01:27:44;5.53;;;1.27;;
25409;SDS011;13339;50.840;4.346;2022-09-09T01:30:14;4.43;;;1.20;;
25409;SDS011;13339;50.840;4.346;2022-09-09T01:32:53;6.63;;;1.77;;
25409;SDS011;13339;50.840;4.346;2022-09-09T01:35:31;8.50;;;1.63;;
25409;SDS011;13339;50.840;4.346;2022-09-09T01:38:15;9.43;;;1.67;;
25409;SDS011;13339;50.840;4.346;2022-09-09T01:40:42;5.27;;;2.03;;
25409;SDS011;13339;50.840;4.346;2022-09-09T01:43:09;4.90;;;1.60;;
25409;SDS011;13339;50.840;4.346;2022-09-09T01:45:35;4.20;;;1.70;;
25409;SDS011;13339;50.840;4.346;2022-09-09T01:48:01;4.80;;;1.83;;
25409;SDS011;13339;50.840;4.346;2022-09-09T01:50:27;6.67;;;1.77;;
25409;SDS011;13339;50.840;4.346;2022-09-09T01:52:54;5.20;;;2.10;;
25409;SDS011;13339;50.840;4.346;2022-09-09T01:55:30;8.40;;;2.13;;
25409;SDS011;13339;50.840;4.346;2022-09-09T01:58:44;9.63;;;2.40;;
25409;SDS011;13339;50.840;4.346;2022-09-09T02:04:02;10.47;;;2.27;;
25409;SDS011;13339;50.840;4.346;2022-09-09T02:06:34;6.73;;;2.17;;
25409;SDS011;13339;50.840;4.346;2022-09-09T02:09:03;7.93;;;1.73;;
25409;SDS011;13339;50.840;4.346;2022-09-09T02:11:31;7.30;;;1.67;;
25409;SDS011;13339;50.840;4.346;2022-09-09T02:14:01;9.37;;;2.20;;
25409;SDS011;13339;50.840;4.346;2022-09-09T02:19:07;11.37;;;2.23;;
25409;SDS011;13339;50.840;4.346;2022-09-09T02:21:37;10.33;;;2.30;;
25409;SDS011;13339;50.840;4.346;2022-09-09T02:24:06;10.97;;;2.77;;
25409;SDS011;13339;50.840;4.346;2022-09-09T02:26:35;7.90;;;2.40;;
25409;SDS011;13339;50.840;4.346;2022-09-09T02:29:06;12.07;;;2.60;;
25409;SDS011;13339;50.840;4.346;2022-09-09T02:31:36;8.30;;;2.50;;
25409;SDS011;13339;50.840;4.346;2022-09-09T02:34:03;9.93;;;2.40;;
25409;SDS011;13339;50.840;4.346;2022-09-09T02:36:32;11.93;;;2.47;;
25409;SDS011;13339;50.840;4.346;2022-09-09T02:39:00;12.10;;;2.37;;
25409;SDS011;13339;50.840;4.346;2022-09-09T02:41:28;11.67;;;2.80;;
25409;SDS011;13339;50.840;4.346;2022-09-09T02:44:01;8.93;;;2.27;;
25409;SDS011;13339;50.840;4.346;2022-09-09T02:49:28;9.43;;;2.30;;
25409;SDS011;13339;50.840;4.346;2022-09-09T02:52:08;7.03;;;2.17;;
25409;SDS011;13339;50.840;4.346;2022-09-09T02:54:41;10.97;;;3.23;;
25409;SDS011;13339;50.840;4.346;2022-09-09T02:59:41;8.20;;;2.43;;
25409;SDS011;13339;50.840;4.346;2022-09-09T03:02:09;12.77;;;2.77;;
25409;SDS011;13339;50.840;4.346;2022-09-09T03:04:36;8.03;;;2.50;;
25409;SDS011;13339;50.840;4.346;2022-09-09T03:07:02;15.60;;;2.70;;
25409;SDS011;13339;50.840;4.346;2022-09-09T03:09:28;7.23;;;2.77;;
25409;SDS011;13339;50.840;4.346;2022-09-09T03:11:54;15.47;;;2.90;;
25409;SDS011;13339;50.840;4.346;2022-09-09T03:14:21;10.57;;;2.23;;
25409;SDS011;13339;50.840;4.346;2022-09-09T03:16:49;14.87;;;2.73;;
25409;SDS011;13339;50.840;4.346;2022-09-09T03:19:16;7.73;;;2.77;;
25409;SDS011;13339;50.840;4.346;2022-09-09T03:21:42;15.20;;;2.43;;
25409;SDS011;13339;50.840;4.346;2022-09-09T03:24:07;8.97;;;2.37;;
25409;SDS011;13339;50.840;4.346;2022-09-09T03:26:33;10.87;;;2.43;;
25409;SDS011;13339;50.840;4.346;2022-09-09T03:28:58;10.57;;;2.53;;
25409;SDS011;13339;50.840;4.346;2022-09-09T03:31:25;7.97;;;2.40;;
25409;SDS011;13339;50.840;4.346;2022-09-09T03:33:54;14.23;;;2.47;;
25409;SDS011;13339;50.840;4.346;2022-09-09T03:36:23;12.30;;;3.30;;
25409;SDS011;13339;50.840;4.346;2022-09-09T03:38:48;8.33;;;2.87;;
25409;SDS011;13339;50.840;4.346;2022-09-09T03:41:15;11.57;;;2.33;;
25409;SDS011;13339;50.840;4.346;2022-09-09T03:43:41;9.63;;;2.53;;
25409;SDS011;13339;50.840;4.346;2022-09-09T03:46:07;14.27;;;3.37;;
25409;SDS011;13339;50.840;4.346;2022-09-09T03:48:32;14.10;;;2.70;;
25409;SDS011;13339;50.840;4.346;2022-09-09T03:50:58;10.07;;;2.67;;
25409;SDS011;13339;50.840;4.346;2022-09-09T03:53:26;12.67;;;3.03;;
25409;SDS011;13339;50.840;4.346;2022-09-09T03:55:53;8.73;;;2.50;;
25409;SDS011;13339;50.840;4.346;2022-09-09T03:58:20;12.77;;;2.80;;
25409;SDS011;13339;50.840;4.346;2022-09-09T04:03:30;13.00;;;2.70;;
25409;SDS011;13339;50.840;4.346;2022-09-09T04:05:58;10.20;;;2.50;;
25409;SDS011;13339;50.840;4.346;2022-09-09T04:08:25;10.97;;;3.07;;
25409;SDS011;13339;50.840;4.346;2022-09-09T04:10:51;10.90;;;2.50;;
25409;SDS011;13339;50.840;4.346;2022-09-09T04:13:18;10.23;;;2.37;;
25409;SDS011;13339;50.840;4.346;2022-09-09T04:15:50;6.70;;;2.80;;
25409;SDS011;13339;50.840;4.346;2022-09-09T04:18:25;14.30;;;3.27;;
25409;SDS011;13339;50.840;4.346;2022-09-09T04:20:53;10.97;;;2.83;;
25409;SDS011;13339;50.840;4.346;2022-09-09T04:23:20;12.93;;;3.20;;
25409;SDS011;13339;50.840;4.346;2022-09-09T04:25:46;9.20;;;2.60;;
25409;SDS011;13339;50.840;4.346;2022-09-09T04:28:14;12.53;;;3.00;;
25409;SDS011;13339;50.840;4.346;2022-09-09T04:30:40;12.70;;;3.13;;
25409;SDS011;13339;50.840;4.346;2022-09-09T04:33:06;12.70;;;2.87;;
25409;SDS011;13339;50.840;4.346;2022-09-09T04:35:32;11.07;;;3.07;;
25409;SDS011;13339;50.840;4.346;2022-09-09T04:37:58;14.80;;;3.20;;
25409;SDS011;13339;50.840;4.346;2022-09-09T04:40:24;13.80;;;3.73;;
25409;SDS011;13339;50.840;4.346;2022-09-09T04:42:50;16.57;;;3.43;;
25409;SDS011;13339;50.840;4.346;2022-09-09T04:45:16;15.10;;;3.60;;
25409;SDS011;13339;50.840;4.346;2022-09-09T04:47:41;16.63;;;3.27;;
25409;SDS011;13339;50.840;4.346;2022-09-09T04:50:07;16.90;;;3.93;;
25409;SDS011;13339;50.840;4.346;2022-09-09T04:52:34;13.83;;;3.20;;
25409;SDS011;13339;50.840;4.346;2022-09-09T04:55:00;11.40;;;3.30;;
25409;SDS011;13339;50.840;4.346;2022-09-09T04:57:26;9.97;;;3.33;;
25409;SDS011;13339;50.840;4.346;2022-09-09T04:59:52;13.13;;;3.33;;
25409;SDS011;13339;50.840;4.346;2022-09-09T05:02:17;12.47;;;3.53;;
25409;SDS011;13339;50.840;4.346;2022-09-09T05:04:43;17.30;;;3.47;;
25409;SDS011;13339;50.840;4.346;2022-09-09T05:07:08;13.00;;;3.17;;
25409;SDS011;13339;50.840;4.346;2022-09-09T05:09:35;14.37;;;3.40;;
25409;SDS011;13339;50.840;4.346;2022-09-09T05:12:00;9.57;;;3.10;;
25409;SDS011;13339;50.840;4.346;2022-09-09T05:14:27;17.83;;;3.97;;
25409;SDS011;13339;50.840;4.346;2022-09-09T05:16:54;15.93;;;5.50;;
25409;SDS011;13339;50.840;4.346;2022-09-09T05:19:21;13.53;;;3.27;;
25409;SDS011;13339;50.840;4.346;2022-09-09T05:21:46;14.97;;;3.63;;
25409;SDS011;13339;50.840;4.346;2022-09-09T05:24:12;15.90;;;3.57;;
25409;SDS011;13339;50.840;4.346;2022-09-09T05:26:38;13.97;;;3.73;;
25409;SDS011;13339;50.840;4.346;2022-09-09T05:29:03;16.37;;;4.00;;
25409;SDS011;13339;50.840;4.346;2022-09-09T05:31:30;14.43;;;4.13;;
25409;SDS011;13339;50.840;4.346;2022-09-09T05:33:56;13.73;;;3.30;;
25409;SDS011;13339;50.840;4.346;2022-09-09T05:36:21;9.73;;;2.83;;
25409;SDS011;13339;50.840;4.346;2022-09-09T05:38:48;9.33;;;3.17;;
25409;SDS011;13339;50.840;4.346;2022-09-09T05:41:15;12.83;;;3.30;;
25409;SDS011;13339;50.840;4.346;2022-09-09T05:43:41;12.23;;;3.47;;
25409;SDS011;13339;50.840;4.346;2022-09-09T05:46:13;11.30;;;3.20;;
25409;SDS011;13339;50.840;4.346;2022-09-09T05:48:41;12.67;;;3.60;;
25409;SDS011;13339;50.840;4.346;2022-09-09T05:51:08;16.43;;;4.20;;
25409;SDS011;13339;50.840;4.346;2022-09-09T05:53:37;12.87;;;2.90;;
25409;SDS011;13339;50.840;4.346;2022-09-09T05:56:04;11.03;;;2.50;;
25409;SDS011;13339;50.840;4.346;2022-09-09T05:58:38;13.97;;;3.30;;
25409;SDS011;13339;50.840;4.346;2022-09-09T06:01:06;10.93;;;3.13;;
25409;SDS011;13339;50.840;4.346;2022-09-09T06:03:37;14.63;;;3.03;;
25409;SDS011;13339;50.840;4.346;2022-09-09T06:06:04;11.43;;;3.07;;
25409;SDS011;13339;50.840;4.346;2022-09-09T06:08:35;14.50;;;3.37;;
25409;SDS011;13339;50.840;4.346;2022-09-09T06:11:10;14.03;;;3.03;;
25409;SDS011;13339;50.840;4.346;2022-09-09T06:13:38;15.03;;;2.60;;
25409;SDS011;13339;50.840;4.346;2022-09-09T06:16:14;11.50;;;2.63;;
25409;SDS011;13339;50.840;4.346;2022-09-09T06:18:41;11.23;;;2.90;;
25409;SDS011;13339;50.840;4.346;2022-09-09T06:21:17;16.03;;;2.90;;
25409;SDS011;13339;50.840;4.346;2022-09-09T06:23:45;14.13;;;3.03;;
25409;SDS011;13339;50.840;4.346;2022-09-09T06:26:13;12.97;;;3.23;;
25409;SDS011;13339;50.840;4.346;2022-09-09T06:28:42;13.50;;;2.90;;
25409;SDS011;13339;50.840;4.346;2022-09-09T06:31:11;13.57;;;2.83;;
25409;SDS011;13339;50.840;4.346;2022-09-09T06:33:38;15.37;;;2.93;;
25409;SDS011;13339;50.840;4.346;2022-09-09T06:36:06;11.70;;;2.83;;
25409;SDS011;13339;50.840;4.346;2022-09-09T06:38:35;9.77;;;2.57;;
25409;SDS011;13339;50.840;4.346;2022-09-09T06:41:00;11.43;;;3.10;;
25409;SDS011;13339;50.840;4.346;2022-09-09T06:43:26;7.27;;;2.27;;
25409;SDS011;13339;50.840;4.346;2022-09-09T06:46:04;10.83;;;2.90;;
25409;SDS011;13339;50.840;4.346;2022-09-09T06:48:33;12.63;;;3.07;;
25409;SDS011;13339;50.840;4.346;2022-09-09T06:53:32;11.53;;;3.90;;
25409;SDS011;13339;50.840;4.346;2022-09-09T06:55:59;13.97;;;2.90;;
25409;SDS011;13339;50.840;4.346;2022-09-09T06:58:27;12.43;;;3.23;;
25409;SDS011;13339;50.840;4.346;2022-09-09T07:01:00;11.57;;;2.83;;
25409;SDS011;13339;50.840;4.346;2022-09-09T07:03:28;10.20;;;3.20;;
25409;SDS011;13339;50.840;4.346;2022-09-09T07:05:55;16.40;;;3.23;;
25409;SDS011;13339;50.840;4.346;2022-09-09T07:08:21;16.47;;;3.17;;
25409;SDS011;13339;50.840;4.346;2022-09-09T07:10:47;12.13;;;2.70;;
25409;SDS011;13339;50.840;4.346;2022-09-09T07:13:13;11.63;;;2.80;;
25409;SDS011;13339;50.840;4.346;2022-09-09T07:15:40;11.47;;;3.33;;
25409;SDS011;13339;50.840;4.346;2022-09-09T07:18:06;11.63;;;3.07;;
25409;SDS011;13339;50.840;4.346;2022-09-09T07:20:32;14.87;;;2.60;;
25409;SDS011;13339;50.840;4.346;2022-09-09T07:22:57;11.07;;;2.67;;
25409;SDS011;13339;50.840;4.346;2022-09-09T07:25:24;8.13;;;2.80;;
25409;SDS011;13339;50.840;4.346;2022-09-09T07:27:53;14.83;;;2.60;;
25409;SDS011;13339;50.840;4.346;2022-09-09T07:30:19;12.67;;;2.97;;
25409;SDS011;13339;50.840;4.346;2022-09-09T07:32:46;8.37;;;2.63;;
25409;SDS011;13339;50.840;4.346;2022-09-09T07:35:11;10.37;;;2.53;;
25409;SDS011;13339;50.840;4.346;2022-09-09T07:37:37;11.17;;;2.70;;
25409;SDS011;13339;50.840;4.346;2022-09-09T07:40:03;14.23;;;3.10;;
25409;SDS011;13339;50.840;4.346;2022-09-09T07:42:30;11.77;;;2.80;;
25409;SDS011;13339;50.840;4.346;2022-09-09T07:44:56;10.60;;;3.07;;
25409;SDS011;13339;50.840;4.346;2022-09-09T07:47:21;6.17;;;2.73;;
25409;SDS011;13339;50.840;4.346;2022-09-09T07:49:47;7.57;;;2.63;;
25409;SDS011;13339;50.840;4.346;2022-09-09T07:52:14;10.10;;;3.50;;
25409;SDS011;13339;50.840;4.346;2022-09-09T07:54:41;7.57;;;2.37;;
25409;SDS011;13339;50.840;4.346;2022-09-09T07:57:07;7.37;;;2.10;;
25409;SDS011;13339;50.840;4.346;2022-09-09T07:59:33;6.40;;;2.77;;
25409;SDS011;13339;50.840;4.346;2022-09-09T08:01:58;13.13;;;2.77;;
25409;SDS011;13339;50.840;4.346;2022-09-09T08:04:24;8.83;;;2.33;;
25409;SDS011;13339;50.840;4.346;2022-09-09T08:06:56;11.20;;;2.77;;
25409;SDS011;13339;50.840;4.346;2022-09-09T08:09:23;15.33;;;3.20;;
25409;SDS011;13339;50.840;4.346;2022-09-09T08:11:54;14.60;;;2.97;;
25409;SDS011;13339;50.840;4.346;2022-09-09T08:14:21;8.20;;;2.70;;
25409;SDS011;13339;50.840;4.346;2022-09-09T08:16:48;6.00;;;2.03;;
25409;SDS011;13339;50.840;4.346;2022-09-09T08:19:14;8.20;;;2.70;;
25409;SDS011;13339;50.840;4.346;2022-09-09T08:21:41;9.03;;;2.80;;
25409;SDS011;13339;50.840;4.346;2022-09-09T08:24:08;11.83;;;2.73;;
25409;SDS011;13339;50.840;4.346;2022-09-09T08:26:36;10.63;;;2.90;;
25409;SDS011;13339;50.840;4.346;2022-09-09T08:29:05;14.27;;;3.73;;
25409;SDS011;13339;50.840;4.346;2022-09-09T08:31:35;10.30;;;2.73;;
25409;SDS011;13339;50.840;4.346;2022-09-09T08:34:03;11.53;;;2.83;;
25409;SDS011;13339;50.840;4.346;2022-09-09T08:36:30;11.70;;;2.67;;
25409;SDS011;13339;50.840;4.346;2022-09-09T08:38:58;11.67;;;2.73;;
25409;SDS011;13339;50.840;4.346;2022-09-09T08:41:47;8.97;;;2.77;;
25409;SDS011;13339;50.840;4.346;2022-09-09T08:47:00;7.77;;;2.47;;
25409;SDS011;13339;50.840;4.346;2022-09-09T08:58:14;9.40;;;2.87;;
25409;SDS011;13339;50.840;4.346;2022-09-09T09:03:43;14.03;;;3.43;;
25409;SDS011;13339;50.840;4.346;2022-09-09T09:06:48;12.63;;;3.30;;
25409;SDS011;13339;50.840;4.346;2022-09-09T09:12:00;9.37;;;3.20;;
25409;SDS011;13339;50.840;4.346;2022-09-09T09:14:30;9.33;;;2.70;;
25409;SDS011;13339;50.840;4.346;2022-09-09T09:20:02;8.73;;;3.23;;
25409;SDS011;13339;50.840;4.346;2022-09-09T09:22:43;13.63;;;3.77;;
25409;SDS011;13339;50.840;4.346;2022-09-09T09:28:00;7.03;;;2.80;;
25409;SDS011;13339;50.840;4.346;2022-09-09T09:30:42;10.53;;;3.03;;
25409;SDS011;13339;50.840;4.346;2022-09-09T09:33:21;9.23;;;2.80;;
25409;SDS011;13339;50.840;4.346;2022-09-09T09:35:48;9.20;;;3.47;;
25409;SDS011;13339;50.840;4.346;2022-09-09T09:40:57;9.43;;;3.00;;
25409;SDS011;13339;50.840;4.346;2022-09-09T09:43:24;12.63;;;3.33;;
25409;SDS011;13339;50.840;4.346;2022-09-09T09:45:59;11.00;;;3.27;;
25409;SDS011;13339;50.840;4.346;2022-09-09T09:48:28;14.47;;;3.50;;
25409;SDS011;13339;50.840;4.346;2022-09-09T09:50:58;6.63;;;2.63;;
25409;SDS011;13339;50.840;4.346;2022-09-09T09:53:30;12.37;;;3.80;;
25409;SDS011;13339;50.840;4.346;2022-09-09T09:55:58;14.23;;;3.07;;
25409;SDS011;13339;50.840;4.346;2022-09-09T09:58:47;10.33;;;3.33;;
25409;SDS011;13339;50.840;4.346;2022-09-09T10:01:25;10.03;;;2.97;;
25409;SDS011;13339;50.840;4.346;2022-09-09T10:04:00;8.90;;;2.60;;
25409;SDS011;13339;50.840;4.346;2022-09-09T10:06:44;7.60;;;2.87;;
25409;SDS011;13339;50.840;4.346;2022-09-09T10:17:24;14.37;;;4.53;;
25409;SDS011;13339;50.840;4.346;2022-09-09T10:22:50;9.83;;;3.90;;
25409;SDS011;13339;50.840;4.346;2022-09-09T10:33:07;10.37;;;3.93;;
25409;SDS011;13339;50.840;4.346;2022-09-09T10:35:39;9.57;;;4.00;;
25409;SDS011;13339;50.840;4.346;2022-09-09T10:52:15;10.53;;;3.90;;
25409;SDS011;13339;50.840;4.346;2022-09-09T10:55:17;10.60;;;3.47;;
25409;SDS011;13339;50.840;4.346;2022-09-09T10:57:56;12.80;;;3.33;;
25409;SDS011;13339;50.840;4.346;2022-09-09T11:00:27;9.20;;;2.90;;
25409;SDS011;13339;50.840;4.346;2022-09-09T11:03:03;13.50;;;3.50;;
25409;SDS011;13339;50.840;4.346;2022-09-09T11:05:42;10.20;;;3.00;;
25409;SDS011;13339;50.840;4.346;2022-09-09T11:08:14;11.77;;;3.23;;
25409;SDS011;13339;50.840;4.346;2022-09-09T11:18:50;9.63;;;2.93;;
25409;SDS011;13339;50.840;4.346;2022-09-09T11:21:54;9.43;;;2.90;;
25409;SDS011;13339;50.840;4.346;2022-09-09T11:30:01;8.37;;;2.80;;
25409;SDS011;13339;50.840;4.346;2022-09-09T11:38:27;6.97;;;2.57;;
25409;SDS011;13339;50.840;4.346;2022-09-09T11:40:58;9.13;;;2.50;;
25409;SDS011;13339;50.840;4.346;2022-09-09T11:43:31;8.03;;;2.80;;
25409;SDS011;13339;50.840;4.346;2022-09-09T11:46:03;10.80;;;2.30;;
25409;SDS011;13339;50.840;4.346;2022-09-09T11:48:33;8.10;;;2.63;;
25409;SDS011;13339;50.840;4.346;2022-09-09T11:51:02;7.37;;;2.57;;
25409;SDS011;13339;50.840;4.346;2022-09-09T11:53:33;12.67;;;2.93;;
25409;SDS011;13339;50.840;4.346;2022-09-09T11:56:23;8.03;;;2.80;;
25409;SDS011;13339;50.840;4.346;2022-09-09T11:58:59;7.10;;;2.20;;
25409;SDS011;13339;50.840;4.346;2022-09-09T12:04:05;9.90;;;2.40;;
25409;SDS011;13339;50.840;4.346;2022-09-09T12:15:46;5.93;;;2.33;;
25409;SDS011;13339;50.840;4.346;2022-09-09T12:17:37;7.57;;;2.77;;
25409;SDS011;13339;50.840;4.346;2022-09-09T12:22:47;8.27;;;2.53;;
25409;SDS011;13339;50.840;4.346;2022-09-09T12:28:39;9.13;;;2.30;;
25409;SDS011;13339;50.840;4.346;2022-09-09T12:31:46;6.37;;;2.20;;
25409;SDS011;13339;50.840;4.346;2022-09-09T12:34:35;6.57;;;2.20;;
25409;SDS011;13339;50.840;4.346;2022-09-09T12:37:14;7.23;;;1.90;;
25409;SDS011;13339;50.840;4.346;2022-09-09T12:39:57;8.53;;;2.60;;
25409;SDS011;13339;50.840;4.346;2022-09-09T12:42:24;5.27;;;1.77;;
25409;SDS011;13339;50.840;4.346;2022-09-09T12:44:51;4.90;;;1.90;;
25409;SDS011;13339;50.840;4.346;2022-09-09T12:47:17;7.33;;;2.40;;
25409;SDS011;13339;50.840;4.346;2022-09-09T12:49:46;9.53;;;2.17;;
25409;SDS011;13339;50.840;4.346;2022-09-09T12:52:24;9.43;;;2.73;;
25409;SDS011;13339;50.840;4.346;2022-09-09T12:55:02;8.47;;;2.10;;
25409;SDS011;13339;50.840;4.346;2022-09-09T12:57:33;8.47;;;2.50;;
25409;SDS011;13339;50.840;4.346;2022-09-09T13:00:04;8.20;;;2.03;;
25409;SDS011;13339;50.840;4.346;2022-09-09T13:02:53;6.43;;;2.07;;
25409;SDS011;13339;50.840;4.346;2022-09-09T13:05:27;7.17;;;2.07;;
25409;SDS011;13339;50.840;4.346;2022-09-09T13:08:04;3.67;;;1.80;;
25409;SDS011;13339;50.840;4.346;2022-09-09T13:10:32;6.13;;;1.80;;
25409;SDS011;13339;50.840;4.346;2022-09-09T13:13:12;3.10;;;1.70;;
25409;SDS011;13339;50.840;4.346;2022-09-09T13:15:53;8.70;;;1.90;;
25409;SDS011;13339;50.840;4.346;2022-09-09T13:18:26;9.93;;;2.37;;
25409;SDS011;13339;50.840;4.346;2022-09-09T13:20:57;9.03;;;2.40;;
25409;SDS011;13339;50.840;4.346;2022-09-09T13:23:24;9.60;;;2.00;;
25409;SDS011;13339;50.840;4.346;2022-09-09T13:25:54;4.73;;;1.90;;
25409;SDS011;13339;50.840;4.346;2022-09-09T13:28:22;4.47;;;1.83;;
25409;SDS011;13339;50.840;4.346;2022-09-09T13:30:56;4.20;;;1.83;;
25409;SDS011;13339;50.840;4.346;2022-09-09T13:33:36;5.63;;;1.80;;
25409;SDS011;13339;50.840;4.346;2022-09-09T13:36:09;7.23;;;1.50;;
25409;SDS011;13339;50.840;4.346;2022-09-09T13:38:39;3.40;;;1.50;;
25409;SDS011;13339;50.840;4.346;2022-09-09T13:41:21;4.40;;;1.43;;
25409;SDS011;13339;50.840;4.346;2022-09-09T13:43:49;3.87;;;1.50;;
25409;SDS011;13339;50.840;4.346;2022-09-09T13:51:39;7.80;;;2.40;;
25409;SDS011;13339;50.840;4.346;2022-09-09T13:54:11;3.37;;;1.40;;
25409;SDS011;13339;50.840;4.346;2022-09-09T13:56:39;3.60;;;2.03;;
25409;SDS011;13339;50.840;4.346;2022-09-09T13:59:09;2.63;;;1.67;;
25409;SDS011;13339;50.840;4.346;2022-09-09T14:01:37;5.50;;;2.20;;
25409;SDS011;13339;50.840;4.346;2022-09-09T14:04:02;7.30;;;1.80;;
25409;SDS011;13339;50.840;4.346;2022-09-09T14:06:30;6.97;;;1.77;;
25409;SDS011;13339;50.840;4.346;2022-09-09T14:08:57;5.03;;;1.83;;
25409;SDS011;13339;50.840;4.346;2022-09-09T14:11:22;6.90;;;1.90;;
25409;SDS011;13339;50.840;4.346;2022-09-09T14:13:48;5.77;;;2.00;;
25409;SDS011;13339;50.840;4.346;2022-09-09T14:16:17;6.40;;;2.63;;
25409;SDS011;13339;50.840;4.346;2022-09-09T14:18:42;5.20;;;1.93;;
25409;SDS011;13339;50.840;4.346;2022-09-09T14:21:09;7.63;;;2.30;;
25409;SDS011;13339;50.840;4.346;2022-09-09T14:23:35;7.30;;;2.60;;
25409;SDS011;13339;50.840;4.346;2022-09-09T14:26:00;4.57;;;2.40;;
25409;SDS011;13339;50.840;4.346;2022-09-09T14:28:26;3.90;;;2.30;;
25409;SDS011;13339;50.840;4.346;2022-09-09T14:30:53;5.80;;;2.40;;
25409;SDS011;13339;50.840;4.346;2022-09-09T14:33:19;6.73;;;2.20;;
25409;SDS011;13339;50.840;4.346;2022-09-09T14:35:45;7.70;;;2.23;;
25409;SDS011;13339;50.840;4.346;2022-09-09T14:38:10;3.77;;;1.83;;
25409;SDS011;13339;50.840;4.346;2022-09-09T14:40:36;6.20;;;2.40;;
25409;SDS011;13339;50.840;4.346;2022-09-09T14:43:03;5.23;;;2.00;;
25409;SDS011;13339;50.840;4.346;2022-09-09T14:45:30;5.20;;;2.00;;
25409;SDS011;13339;50.840;4.346;2022-09-09T14:47:56;4.47;;;1.90;;
25409;SDS011;13339;50.840;4.346;2022-09-09T14:50:23;5.03;;;1.90;;
25409;SDS011;13339;50.840;4.346;2022-09-09T14:52:49;4.93;;;2.07;;
25409;SDS011;13339;50.840;4.346;2022-09-09T14:55:15;7.80;;;1.70;;
25409;SDS011;13339;50.840;4.346;2022-09-09T14:57:41;5.30;;;2.17;;
25409;SDS011;13339;50.840;4.346;2022-09-09T15:00:08;4.87;;;2.07;;
25409;SDS011;13339;50.840;4.346;2022-09-09T15:02:35;3.13;;;2.30;;
25409;SDS011;13339;50.840;4.346;2022-09-09T15:05:01;10.50;;;5.10;;
25409;SDS011;13339;50.840;4.346;2022-09-09T15:07:27;7.97;;;2.87;;
25409;SDS011;13339;50.840;4.346;2022-09-09T15:09:53;6.97;;;2.37;;
25409;SDS011;13339;50.840;4.346;2022-09-09T15:12:20;6.73;;;2.30;;
25409;SDS011;13339;50.840;4.346;2022-09-09T15:14:46;6.90;;;2.17;;
25409;SDS011;13339;50.840;4.346;2022-09-09T15:17:12;6.83;;;2.00;;
25409;SDS011;13339;50.840;4.346;2022-09-09T15:19:38;6.77;;;1.90;;
25409;SDS011;13339;50.840;4.346;2022-09-09T15:22:06;4.77;;;2.00;;
25409;SDS011;13339;50.840;4.346;2022-09-09T15:24:33;4.90;;;2.10;;
25409;SDS011;13339;50.840;4.346;2022-09-09T15:26:59;6.43;;;1.83;;
25409;SDS011;13339;50.840;4.346;2022-09-09T15:29:26;6.27;;;1.87;;
25409;SDS011;13339;50.840;4.346;2022-09-09T15:31:53;7.47;;;2.23;;
25409;SDS011;13339;50.840;4.346;2022-09-09T15:34:19;3.63;;;2.07;;
25409;SDS011;13339;50.840;4.346;2022-09-09T15:36:45;6.17;;;1.87;;
25409;SDS011;13339;50.840;4.346;2022-09-09T15:39:12;9.40;;;1.93;;
25409;SDS011;13339;50.840;4.346;2022-09-09T15:41:43;7.43;;;1.97;;
25409;SDS011;13339;50.840;4.346;2022-09-09T15:44:12;6.60;;;1.80;;
25409;SDS011;13339;50.840;4.346;2022-09-09T15:46:39;7.97;;;2.23;;
25409;SDS011;13339;50.840;4.346;2022-09-09T15:49:10;8.90;;;2.37;;
25409;SDS011;13339;50.840;4.346;2022-09-09T15:51:43;10.93;;;2.47;;
25409;SDS011;13339;50.840;4.346;2022-09-09T15:54:11;6.13;;;2.10;;
25409;SDS011;13339;50.840;4.346;2022-09-09T15:56:39;5.30;;;2.03;;
25409;SDS011;13339;50.840;4.346;2022-09-09T15:59:05;5.77;;;2.43;;
25409;SDS011;13339;50.840;4.346;2022-09-09T16:01:31;9.73;;;2.60;;
25409;SDS011;13339;50.840;4.346;2022-09-09T16:03:57;4.97;;;2.33;;
25409;SDS011;13339;50.840;4.346;2022-09-09T16:06:25;4.17;;;2.47;;
25409;SDS011;13339;50.840;4.346;2022-09-09T16:08:53;8.20;;;2.30;;
25409;SDS011;13339;50.840;4.346;2022-09-09T16:11:24;7.63;;;2.37;;
25409;SDS011;13339;50.840;4.346;2022-09-09T16:13:52;11.07;;;2.47;;
25409;SDS011;13339;50.840;4.346;2022-09-09T16:16:19;6.60;;;2.40;;
25409;SDS011;13339;50.840;4.346;2022-09-09T16:18:48;12.73;;;2.40;;
25409;SDS011;13339;50.840;4.346;2022-09-09T16:21:23;10.03;;;3.00;;
25409;SDS011;13339;50.840;4.346;2022-09-09T16:23:50;9.27;;;2.93;;
25409;SDS011;13339;50.840;4.346;2022-09-09T16:26:18;6.23;;;2.43;;
25409;SDS011;13339;50.840;4.346;2022-09-09T16:28:44;3.83;;;1.63;;
25409;SDS011;13339;50.840;4.346;2022-09-09T16:31:12;5.37;;;1.60;;
25409;SDS011;13339;50.840;4.346;2022-09-09T16:33:41;6.90;;;1.80;;
25409;SDS011;13339;50.840;4.346;2022-09-09T16:36:07;4.47;;;1.53;;
25409;SDS011;13339;50.840;4.346;2022-09-09T16:38:35;3.00;;;2.00;;
25409;SDS011;13339;50.840;4.346;2022-09-09T16:41:01;2.10;;;1.60;;
25409;SDS011;13339;50.840;4.346;2022-09-09T16:43:31;6.57;;;3.20;;
25409;SDS011;13339;50.840;4.346;2022-09-09T16:46:01;3.17;;;1.80;;
25409;SDS011;13339;50.840;4.346;2022-09-09T16:48:31;5.60;;;2.40;;
25409;SDS011;13339;50.840;4.346;2022-09-09T16:51:07;5.07;;;1.97;;
25409;SDS011;13339;50.840;4.346;2022-09-09T16:53:36;3.73;;;1.87;;
25409;SDS011;13339;50.840;4.346;2022-09-09T16:56:08;3.57;;;1.97;;
25409;SDS011;13339;50.840;4.346;2022-09-09T16:58:38;4.47;;;2.97;;
25409;SDS011;13339;50.840;4.346;2022-09-09T17:01:04;5.47;;;2.50;;
25409;SDS011;13339;50.840;4.346;2022-09-09T17:03:30;5.13;;;2.70;;
25409;SDS011;13339;50.840;4.346;2022-09-09T17:05:57;5.57;;;2.43;;
25409;SDS011;13339;50.840;4.346;2022-09-09T17:08:27;6.27;;;2.23;;
25409;SDS011;13339;50.840;4.346;2022-09-09T17:10:54;11.17;;;3.57;;
25409;SDS011;13339;50.840;4.346;2022-09-09T17:13:20;6.97;;;2.60;;
25409;SDS011;13339;50.840;4.346;2022-09-09T17:15:46;6.53;;;2.57;;
25409;SDS011;13339;50.840;4.346;2022-09-09T17:18:12;7.53;;;2.80;;
25409;SDS011;13339;50.840;4.346;2022-09-09T17:20:38;6.90;;;2.70;;
25409;SDS011;13339;50.840;4.346;2022-09-09T17:23:06;4.80;;;2.67;;
25409;SDS011;13339;50.840;4.346;2022-09-09T17:25:32;4.40;;;2.33;;
25409;SDS011;13339;50.840;4.346;2022-09-09T17:27:58;6.70;;;3.17;;
25409;SDS011;13339;50.840;4.346;2022-09-09T17:30:25;17.43;;;11.53;;